Latest Weather Observations for Mount Nowa Nowa

IDV60801

Issued at 6:02 pm EST Tuesday 26 July 2016 (issued every 30 minutes, with the page automatically refreshed every 10 minutes)

About weather observations | Map of weather stations | Latest weather observations for VIC | Other Formats
Station Details ID: 084144 Name: MOUNT NOWA NOWA Lat: -37.69 Lon: 148.09 Height: 350.0 m
Data from the previous 72 hours. | See also: Recent months at Mount Nowa Nowa
Date/Time
EST
Temp
°C
App
Temp
°C
Dew
Point
°C
Rel
Hum
%
Delta-T
°C
Wind Press
QNH
hPa
Press
MSL
hPa
Rain since
9am
mm
Dir  Spd
km/h
Gust
km/h
Spd
kts
Gust
kts
26/06:00pm 7.0 1.5 0.9 65 2.5 NNW 19 28 10 15 - - 0.0
26/05:30pm 7.3 3.0 1.0 64 2.6 NNW 13 24 7 13 - - 0.0
26/05:00pm 8.2 4.7 1.1 61 2.9 NW 9 17 5 9 - - 0.0
26/04:30pm 8.7 5.2 1.1 59 3.2 NW 9 19 5 10 - - 0.0
26/04:00pm 9.8 5.5 0.7 53 3.8 NW 13 24 7 13 - - 0.0
26/03:30pm 10.8 7.2 0.8 50 4.2 WNW 9 20 5 11 - - 0.0
26/03:00pm 10.0 7.1 1.4 55 3.6 W 6 9 3 5 - - 0.0
26/02:30pm 10.9 7.0 1.2 51 4.1 WNW 11 28 6 15 - - 0.0
26/02:00pm 9.9 5.6 0.8 53 3.8 NW 13 30 7 16 - - 0.0
26/01:30pm 9.6 4.9 0.8 54 3.7 NW 15 30 8 16 - - 0.0
26/01:00pm 9.9 4.7 0.3 51 4.0 NW 17 30 9 16 - - 0.0
26/12:30pm 9.6 5.2 0.5 53 3.8 NW 13 24 7 13 - - 0.0
26/12:00pm 9.6 4.4 0.2 52 3.9 NW 17 28 9 15 - - 0.0
26/11:30am 9.6 4.8 0.0 51 3.9 NW 15 24 8 13 - - 0.0
26/11:00am 9.1 4.2 -0.2 52 3.8 NW 15 28 8 15 - - 0.0
26/10:30am 9.2 5.1 -0.4 51 3.9 WNW 11 19 6 10 - - 0.0
26/10:00am 8.3 4.6 -0.2 55 3.4 WNW 9 17 5 9 - - 0.0
26/09:30am 7.0 2.4 -0.9 57 3.1 WNW 13 20 7 11 - - 0.0
26/09:00am 6.0 1.4 -1.2 60 2.8 WNW 13 22 7 12 - - 0.2
26/08:30am 5.5 0.8 -1.6 60 2.7 WNW 13 20 7 11 - - 0.2
26/08:00am 5.2 0.5 -1.9 60 2.6 WNW 13 20 7 11 - - 0.2
26/07:30am 5.1 0.8 -1.8 61 2.6 WNW 11 17 6 9 - - 0.2
26/07:00am 4.8 0.5 -1.6 63 2.4 WNW 11 19 6 10 - - 0.2
26/06:30am 5.0 0.0 -1.2 64 2.3 WNW 15 26 8 14 - - 0.2
26/06:00am 5.4 0.4 -1.1 63 2.5 WNW 15 22 8 12 - - 0.2
26/05:30am 5.3 0.7 -0.7 65 2.3 NW 13 19 7 10 - - 0.2
26/05:00am 5.4 0.5 -0.6 65 2.3 WNW 15 22 8 12 - - 0.2
26/04:30am 5.2 0.7 -0.2 68 2.1 WNW 13 20 7 11 - - 0.2
26/04:00am 5.4 1.0 0.4 70 2.0 WNW 13 19 7 10 - - 0.2
26/03:30am 5.2 1.3 1.3 76 1.6 WNW 11 15 6 8 - - 0.2
26/03:00am 5.3 0.7 1.8 78 1.4 W 15 19 8 10 - - 0.2
26/02:30am 5.0 1.2 2.0 81 1.2 WNW 11 17 6 9 - - 0.2
26/02:00am 5.7 1.1 1.8 76 1.6 W 15 22 8 12 - - 0.2
26/01:30am 5.6 0.7 1.9 77 1.5 W 17 32 9 17 - - 0.2
26/01:00am 5.7 1.2 2.2 78 1.5 W 15 32 8 17 - - 0.2
26/12:30am 6.2 2.8 4.2 87 0.9 W 11 22 6 12 - - 0.2
26/12:00am 7.1 4.5 4.4 83 1.2 W 7 15 4 8 - - 0.2
 
Date/Time
EST
Temp
°C
App
Temp
°C
Dew
Point
°C
Rel
Hum
%
Delta-T
°C
Wind Press
QNH
hPa
Press
MSL
hPa
Rain since
9am
mm
Dir  Spd
km/h
Gust
km/h
Spd
kts
Gust
kts
25/11:30pm 7.3 4.3 4.3 81 1.3 WNW 9 19 5 10 - - 0.2
25/11:00pm 8.9 3.7 2.7 65 2.7 NW 19 33 10 18 - - 0.0
25/10:30pm 9.0 2.8 2.1 62 2.9 NW 24 43 13 23 - - 0.0
25/10:00pm 9.1 1.2 2.0 61 3.0 NW 33 65 18 35 - - 0.0
25/09:30pm 9.4 1.4 1.6 58 3.3 NW 33 59 18 32 - - 0.0
25/09:05pm 9.6 1.7 1.3 56 3.5 NW 32 72 17 39 - - 0.0
25/09:00pm 9.3 1.8 1.0 56 3.5 NW 30 50 16 27 - - 0.0
25/08:30pm 9.6 2.0 0.8 54 3.7 NW 30 63 16 34 - - 0.0
25/08:16pm 9.8 2.6 0.4 52 3.9 NW 28 56 15 30 - - 0.0
25/08:00pm 9.8 3.3 0.4 52 3.9 NW 24 44 13 24 - - 0.0
25/07:30pm 10.1 3.2 0.4 51 4.0 NW 26 52 14 28 - - 0.0
25/07:00pm 9.8 4.2 0.2 51 4.0 WNW 19 35 10 19 - - 0.0
25/06:30pm 9.3 3.8 1.9 60 3.2 NW 20 39 11 21 - - 0.0
25/06:00pm 9.2 5.1 2.5 63 2.9 NW 13 26 7 14 - - 0.0
25/05:30pm 9.4 4.6 2.5 62 3.0 NW 17 30 9 16 - - 0.0
25/05:00pm 9.9 5.1 2.5 60 3.2 NW 17 28 9 15 - - 0.0
25/04:30pm 10.7 5.8 2.3 56 3.7 NW 17 35 9 19 - - 0.0
25/04:00pm 11.2 5.1 2.5 55 3.8 NW 24 48 13 26 - - 0.0
25/03:30pm 11.8 6.7 3.1 55 3.9 NW 19 39 10 21 - - 0.0
25/03:00pm 12.4 8.2 3.6 55 4.0 NW 15 28 8 15 - - 0.0
25/02:30pm 12.5 8.1 2.9 52 4.3 NW 15 37 8 20 - - 0.0
25/02:00pm 12.9 8.7 3.6 53 4.3 NW 15 32 8 17 - - 0.0
25/01:30pm 12.9 9.4 3.3 52 4.4 NW 11 22 6 12 - - 0.0
25/01:00pm 12.4 8.9 3.4 54 4.1 NW 11 22 6 12 - - 0.0
25/12:30pm 12.0 7.7 3.0 54 4.0 NW 15 35 8 19 - - 0.0
25/12:00pm 12.0 7.7 3.0 54 4.0 NW 15 35 8 19 - - 0.0
25/11:30am 11.3 7.3 2.6 55 3.8 NW 13 26 7 14 - - 0.0
25/11:00am 10.8 7.2 2.9 58 3.5 WNW 11 17 6 9 - - 0.0
25/10:30am 9.6 4.7 1.8 58 3.3 NW 17 30 9 16 - - 0.0
25/10:00am 8.9 4.3 1.8 61 3.0 NW 15 22 8 12 - - 0.0
25/09:30am 7.6 2.2 1.5 65 2.5 NW 19 33 10 18 - - 0.0
25/09:00am 6.2 1.2 1.1 70 2.1 NW 17 26 9 14 - - 0.0
25/08:30am 5.8 1.1 0.8 70 2.0 NW 15 20 8 11 - - 0.0
25/08:00am 5.0 0.7 0.8 74 1.7 NW 13 17 7 9 - - 0.0
25/07:30am 5.0 0.3 0.6 73 1.7 NW 15 22 8 12 - - 0.0
25/07:00am 5.1 0.7 0.5 72 1.8 NW 13 17 7 9 - - 0.0
25/06:30am 5.2 0.5 0.6 72 1.8 NW 15 24 8 13 - - 0.0
25/06:00am 5.0 0.6 0.6 73 1.7 NW 13 19 7 10 - - 0.0
25/05:30am 4.9 0.9 0.5 73 1.7 NW 11 15 6 8 - - 0.0
25/05:00am 5.3 1.3 0.5 71 1.9 NW 11 15 6 8 - - 0.0
25/04:30am 5.6 1.2 0.6 70 2.0 NW 13 20 7 11 - - 0.0
25/04:00am 5.5 1.2 0.9 72 1.8 NW 13 20 7 11 - - 0.0
25/03:30am 5.6 1.3 1.2 73 1.8 NW 13 15 7 8 - - 0.0
25/03:00am 5.8 1.5 1.3 73 1.8 NW 13 17 7 9 - - 0.0
25/02:30am 5.8 1.5 1.3 73 1.8 NW 13 22 7 12 - - 0.0
25/02:00am 6.0 1.0 1.3 72 1.9 NW 17 26 9 14 - - 0.0
25/01:30am 6.0 1.3 1.2 71 1.9 NW 15 26 8 14 - - 0.0
25/01:00am 6.0 1.3 1.0 70 2.0 NW 15 24 8 13 - - 0.0
25/12:30am 5.8 1.5 1.0 71 1.9 NNW 13 20 7 11 - - 0.0
25/12:00am 6.2 3.0 0.7 68 2.2 NNW 7 13 4 7 - - 0.0
 
Date/Time
EST
Temp
°C
App
Temp
°C
Dew
Point
°C
Rel
Hum
%
Delta-T
°C
Wind Press
QNH
hPa
Press
MSL
hPa
Rain since
9am
mm
Dir  Spd
km/h
Gust
km/h
Spd
kts
Gust
kts
24/11:30pm 6.5 2.5 0.6 66 2.4 NW 11 22 6 12 - - 0.0
24/11:00pm 6.1 1.4 0.9 69 2.1 NNW 15 24 8 13 - - 0.0
24/10:30pm 6.2 1.1 0.7 68 2.2 NNW 17 28 9 15 - - 0.0
24/10:00pm 5.9 -0.1 1.1 71 1.9 NNW 22 39 12 21 - - 0.0
24/09:30pm 6.0 0.6 1.2 71 1.9 NNW 19 32 10 17 - - 0.0
24/09:00pm 6.1 1.1 1.1 70 2.0 NNW 17 30 9 16 - - 0.0
24/08:30pm 6.3 1.2 1.0 69 2.1 NNW 17 28 9 15 - - 0.0
24/08:00pm 6.0 1.7 1.0 70 2.0 NNW 13 24 7 13 - - 0.0
24/07:30pm 5.9 1.6 1.1 71 1.9 NW 13 24 7 13 - - 0.0
24/07:00pm 6.0 2.1 1.0 70 2.0 NW 11 19 6 10 - - 0.0
24/06:30pm 6.4 2.4 0.7 67 2.3 NW 11 20 6 11 - - 0.0
24/06:00pm 6.8 2.1 0.7 65 2.5 NW 15 28 8 15 - - 0.0
24/05:30pm 7.0 2.3 0.9 65 2.5 NW 15 26 8 14 - - 0.0
24/05:00pm 7.6 3.3 1.2 64 2.6 NW 13 22 7 12 - - 0.0
24/04:30pm 8.4 4.5 0.9 59 3.1 NW 11 17 6 9 - - 0.0
24/04:00pm 9.4 5.9 1.3 57 3.4 NNW 9 20 5 11 - - 0.0
24/03:30pm 9.3 5.0 1.2 57 3.4 NNW 13 22 7 12 - - 0.0
24/03:00pm 8.8 4.8 0.8 57 3.3 NW 11 24 6 13 - - 0.0
24/02:30pm 8.9 5.3 0.6 56 3.4 NNW 9 17 5 9 - - 0.0
24/02:00pm 9.4 5.8 0.3 53 3.7 NNW 9 17 5 9 - - 0.0
24/01:30pm 9.2 6.1 1.4 58 3.3 NNW 7 17 4 9 - - 0.0
24/01:00pm 9.5 5.9 0.7 54 3.7 NW 9 24 5 13 - - 0.0
24/12:30pm 10.0 5.7 0.9 53 3.8 NW 13 32 7 17 - - 0.0
24/12:00pm 9.4 4.6 0.3 53 3.7 NW 15 24 8 13 - - 0.0
24/11:30am 9.3 5.3 0.2 53 3.7 NW 11 28 6 15 - - 0.0
24/11:00am 8.5 3.6 -0.5 53 3.6 NW 15 28 8 15 - - 0.0
24/10:30am 8.1 4.1 0.3 58 3.2 NW 11 17 6 9 - - 0.0
24/10:00am 7.2 3.3 1.1 65 2.5 NW 11 20 6 11 - - 0.0
24/09:30am 5.7 0.9 0.3 68 2.1 NNW 15 26 8 14 - - 0.0
24/09:00am 4.7 0.2 -0.5 69 2.0 NNW 13 22 7 12 - - 0.8
24/08:30am 4.7 -0.3 -1.1 66 2.2 NW 15 24 8 13 - - 0.8
24/08:00am 4.4 -0.6 -1.4 66 2.2 NW 15 24 8 13 - - 0.8
24/07:30am 4.5 -0.2 -1.5 65 2.2 NW 13 26 7 14 - - 0.8
24/07:00am 3.7 -0.9 -1.3 70 1.9 NW 13 22 7 12 - - 0.8
24/06:30am 3.7 -0.5 -1.1 71 1.8 NW 11 19 6 10 - - 0.8
24/06:00am 3.4 -0.8 -0.8 74 1.6 NW 11 15 6 8 - - 0.8
24/05:30am 3.3 -0.5 -0.7 75 1.5 NW 9 13 5 7 - - 0.8
24/05:00am 3.1 -0.7 -0.4 78 1.3 WNW 9 11 5 6 - - 0.8
24/04:30am 3.4 0.2 -0.2 77 1.4 WNW 6 9 3 5 - - 0.8
24/04:00am 3.6 0.4 -0.2 76 1.4 WNW 6 9 3 5 - - 0.8
24/03:30am 3.9 0.6 -0.1 75 1.5 WNW 7 11 4 6 - - 0.8
24/03:00am 4.5 1.4 0.1 73 1.7 WNW 6 9 3 5 - - 0.8
24/02:30am 4.7 0.6 0.1 72 1.8 W 11 15 6 8 - - 0.8
24/02:00am 4.9 0.5 0.3 72 1.8 W 13 17 7 9 - - 0.8
24/01:30am 5.0 0.7 0.8 74 1.7 W 13 17 7 9 - - 0.8
24/01:00am 4.3 0.8 1.3 81 1.2 W 9 13 5 7 - - 0.8
24/12:30am 4.7 1.2 1.4 79 1.3 W 9 17 5 9 - - 0.8
24/12:00am 4.8 1.4 1.7 80 1.3 W 9 17 5 9 - - 0.8
 
Date/Time
EST
Temp
°C
App
Temp
°C
Dew
Point
°C
Rel
Hum
%
Delta-T
°C
Wind Press
QNH
hPa
Press
MSL
hPa
Rain since
9am
mm
Dir  Spd
km/h
Gust
km/h
Spd
kts
Gust
kts
23/11:30pm 4.7 1.3 1.9 82 1.1 W 9 17 5 9 - - 0.8
23/11:00pm 4.9 0.7 1.7 80 1.3 W 13 22 7 12 - - 0.8
23/10:30pm 5.6 1.7 1.2 73 1.8 WSW 11 22 6 12 - - 0.8
23/10:00pm 5.5 1.2 0.9 72 1.8 W 13 24 7 13 - - 0.8
23/09:30pm 5.3 1.0 1.1 74 1.7 W 13 26 7 14 - - 0.8
23/09:00pm 5.5 1.2 1.1 73 1.8 WSW 13 30 7 16 - - 0.8
23/08:30pm 5.9 1.5 0.3 67 2.2 W 13 43 7 23 - - 0.8
23/08:00pm 5.7 1.7 0.7 70 2.0 W 11 20 6 11 - - 0.8
23/07:30pm 6.2 2.1 0.1 65 2.4 WSW 11 26 6 14 - - 0.8
23/07:00pm 6.4 1.5 -0.3 62 2.6 W 15 30 8 16 - - 0.8
23/06:30pm 6.0 1.6 0.1 66 2.3 W 13 24 7 13 - - 0.8

Other Formats:

Comma delimited format used in spreadsheet applications
http://www.bom.gov.au/fwo/IDV60801/IDV60801.94930.axf

JavaScript Object Notation format (JSON) in row-major order
http://www.bom.gov.au/fwo/IDV60801/IDV60801.94930.json